首页
METAR-TAF:

METAR-TAF

机场 :

Resolute, 努那武特, 加拿大

纬度: 74-43N, 经度: 094-59W, 海拔: 67米

当前天气观测

该预报发布于29分钟前的15:00 UTC
风速12节,风向东南
温度 0°C
湿度 93%
气压 997 hPa
能見度: 24.1公里
散云层高于600英尺
散云层高于1200英尺

METAR: CYRB 161500Z 13012KT 15SM SCT006 SCT012 00/M01 A2943 RMK SC3SC1 SLP974

时间: 10:29 (15:29 UTC)

预报

该预报发布于2小时和8分钟前的13:21 UTC
预报有效从16日的 13点(UTC)到 17日的 12点(UTC)
风速10节,风向南转南东
能見度: 10公里
散云层高于1200英尺
多云层高于3000英尺
多云层高于10000英尺
短暂存在
从 16日的 13点(UTC)到 16日的 21点(UTC)
多云层高于1200英尺
多云层高于3000英尺
成为
从 16日的 17点(UTC)到 16日的 19点(UTC)
风速15节,风向东南,有时为25节阵风
从 16日的 2100点(UTC)
风速20节,风向东南,有时为30节阵风
能見度: 10公里
散云层高于1000英尺
多云层高于3000英尺
阴天层高于6000英尺
短暂存在
从 16日的 21点(UTC)到 17日的 08点(UTC)
能見度: 8.0公里
多云层高于1000英尺
阴天层高于3000英尺
小雨, 轻雾
从 17日的 0800点(UTC)
风速25节,风向东南,有时为35节阵风
能見度: 3.2公里
多云层高于500英尺
阴天层高于1000英尺
小雨, 轻雾

TAF: CYRB 161321Z 1613/1712 15010KT P6SM SCT012 BKN030 BKN100 TEMPO 1613/1621 BKN012 BKN030 BECMG 1617/1619 14015G25KT FM162100 14020G30KT P6SM SCT010 BKN030 OVC060 TEMPO 1621/1708 5SM -RA BR BKN010 OVC030 FM170800 13025G35KT 2SM -RA BR BKN005 OVC010 RMK NXT FCST BY 161800Z

超过4000个机场的气象观测和天气预报(METAR&TAF报告)。

可查询的气象台以黄色和红色小点在地图上表示。

将鼠标移到小点上方,可查看气象台名称。

然后点击查看天气观测和预报。

如需切换地图:点击带黑十字的绿色按钮放大地图;点击带横线的绿色按钮缩小地图;或者点击绿色箭头查看邻近地区的地图。


METAR-TAF: